createdAt,value
2022-09-28T00:00:54.955Z,100.00
2022-09-28T00:01:57.136Z,100.00
2022-09-28T00:02:59.978Z,100.00
2022-09-28T00:04:02.191Z,100.00
2022-09-28T00:05:04.633Z,100.00
2022-09-28T00:06:10.070Z,100.00
2022-09-28T00:07:12.436Z,100.00
2022-09-28T00:08:14.645Z,100.00
2022-09-28T00:09:17.638Z,100.00
2022-09-28T00:10:22.844Z,100.00
2022-09-28T00:11:28.244Z,100.00
2022-09-28T00:12:31.461Z,100.00
2022-09-28T00:13:34.167Z,100.00
2022-09-28T00:14:37.066Z,100.00
2022-09-28T00:15:39.234Z,100.00
2022-09-28T00:16:43.628Z,100.00
2022-09-28T00:17:45.810Z,100.00
2022-09-28T00:18:49.711Z,100.00
2022-09-28T00:19:51.966Z,100.00
2022-09-28T00:21:02.336Z,100.00
2022-09-28T00:22:04.548Z,100.00
2022-09-28T00:23:06.669Z,100.00
2022-09-28T00:24:17.275Z,100.00
2022-09-28T00:25:22.007Z,100.00
2022-09-28T00:26:24.625Z,100.00
2022-09-28T00:27:26.790Z,100.00
2022-09-28T00:28:28.936Z,100.00
2022-09-28T00:29:36.603Z,100.00
2022-09-28T00:30:38.746Z,100.00
2022-09-28T00:31:40.963Z,100.00
2022-09-28T00:32:43.178Z,100.00
2022-09-28T00:33:45.350Z,100.00
2022-09-28T00:34:48.846Z,100.00
2022-09-28T00:35:58.808Z,100.00
2022-09-28T00:37:02.723Z,100.00
2022-09-28T00:38:04.837Z,100.00
2022-09-28T00:39:08.382Z,100.00
2022-09-28T00:40:10.614Z,100.00
2022-09-28T00:41:14.397Z,100.00
2022-09-28T00:42:22.468Z,100.00
2022-09-28T00:43:25.204Z,100.00
2022-09-28T00:44:34.193Z,100.00
2022-09-28T00:45:36.394Z,100.00
2022-09-28T00:46:38.557Z,100.00
2022-09-28T00:47:54.803Z,100.00
2022-09-28T00:49:08.783Z,100.00
2022-09-28T00:50:10.841Z,100.00
2022-09-28T00:51:13.476Z,100.00
2022-09-28T00:52:31.002Z,100.00
2022-09-28T00:53:37.019Z,100.00
2022-09-28T00:54:40.502Z,100.00
2022-09-28T00:55:48.379Z,100.00
2022-09-28T00:56:51.265Z,100.00
2022-09-28T00:57:56.840Z,100.00
2022-09-28T00:58:59.924Z,100.00
2022-09-28T01:00:04.435Z,100.00
2022-09-28T01:01:07.102Z,100.00
2022-09-28T01:02:10.591Z,100.00
2022-09-28T01:03:14.297Z,100.00
2022-09-28T01:04:17.441Z,100.00
2022-09-28T01:05:21.083Z,100.00
2022-09-28T01:06:27.637Z,100.00
2022-09-28T01:07:32.747Z,100.00
2022-09-28T01:08:36.237Z,100.00
2022-09-28T01:09:40.582Z,100.00
2022-09-28T01:10:43.785Z,100.00
2022-09-28T01:11:46.533Z,100.00
2022-09-28T01:12:48.725Z,100.00
2022-09-28T01:13:54.421Z,100.00
2022-09-28T01:14:57.973Z,100.00
2022-09-28T01:16:21.629Z,100.00
2022-09-28T01:17:49.199Z,100.00
2022-09-28T01:19:06.963Z,100.00
2022-09-28T01:20:28.980Z,100.00
2022-09-28T01:21:45.452Z,100.00
2022-09-28T01:23:12.972Z,100.00
2022-09-28T01:24:29.323Z,100.00
2022-09-28T01:25:31.702Z,100.00
2022-09-28T01:26:47.614Z,100.00
2022-09-28T01:27:54.503Z,100.00
2022-09-28T01:29:05.546Z,100.00
2022-09-28T01:30:12.070Z,100.00
2022-09-28T01:31:16.180Z,100.00
2022-09-28T01:32:27.970Z,100.00
2022-09-28T01:33:39.350Z,100.00
2022-09-28T01:34:49.562Z,100.00
2022-09-28T01:36:13.902Z,100.00
2022-09-28T01:37:20.002Z,100.00
2022-09-28T01:38:42.957Z,100.00
2022-09-28T01:39:48.842Z,100.00
2022-09-28T01:40:53.047Z,100.00
2022-09-28T01:42:00.786Z,100.00
2022-09-28T01:43:11.008Z,100.00
2022-09-28T01:44:16.755Z,100.00
2022-09-28T01:45:26.046Z,100.00
2022-09-28T01:46:36.467Z,100.00
2022-09-28T01:47:40.523Z,100.00
2022-09-28T01:48:56.300Z,100.00
2022-09-28T01:50:09.550Z,100.00
2022-09-28T01:51:21.538Z,100.00
2022-09-28T01:52:33.897Z,100.00
2022-09-28T01:53:40.906Z,100.00
2022-09-28T01:55:15.214Z,100.00
2022-09-28T01:56:29.795Z,100.00
2022-09-28T01:57:48.682Z,100.00
2022-09-28T01:58:56.659Z,100.00
2022-09-28T02:00:06.239Z,100.00
2022-09-28T02:01:36.299Z,100.00
2022-09-28T02:02:56.200Z,100.00
2022-09-28T02:04:14.568Z,100.00
2022-09-28T02:05:32.819Z,100.00
2022-09-28T02:06:40.511Z,100.00
2022-09-28T02:07:53.820Z,100.00
2022-09-28T02:09:02.109Z,100.00
2022-09-28T02:10:25.577Z,100.00
2022-09-28T02:11:27.984Z,100.00
2022-09-28T02:12:42.884Z,100.00
2022-09-28T02:13:50.565Z,100.00
2022-09-28T02:14:59.593Z,100.00
2022-09-28T02:16:16.529Z,100.00
2022-09-28T02:17:18.719Z,100.00
2022-09-28T02:18:22.819Z,100.00
2022-09-28T02:19:27.737Z,100.00
2022-09-28T02:20:32.731Z,100.00
2022-09-28T02:21:53.749Z,100.00
2022-09-28T02:22:56.854Z,100.00
2022-09-28T02:24:06.997Z,100.00
2022-09-28T02:25:20.913Z,100.00
2022-09-28T02:26:29.590Z,100.00
2022-09-28T02:27:38.117Z,100.00
2022-09-28T02:28:40.348Z,100.00
2022-09-28T02:29:42.695Z,100.00
2022-09-28T02:30:45.611Z,100.00
2022-09-28T02:31:50.149Z,100.00
2022-09-28T02:32:57.047Z,100.00
2022-09-28T02:33:59.205Z,100.00
2022-09-28T02:35:01.698Z,100.00
2022-09-28T02:36:04.398Z,100.00
2022-09-28T02:37:12.225Z,100.00
2022-09-28T02:38:14.937Z,100.00
2022-09-28T02:39:19.019Z,100.00
2022-09-28T02:40:28.872Z,100.00
2022-09-28T02:41:50.460Z,100.00
2022-09-28T02:43:09.335Z,100.00
2022-09-28T02:44:17.309Z,100.00
2022-09-28T02:45:29.274Z,100.00
2022-09-28T02:46:51.897Z,100.00
2022-09-28T02:48:42.689Z,100.00
2022-09-28T02:50:12.095Z,100.00
2022-09-28T02:51:26.221Z,100.00
2022-09-28T02:52:43.379Z,100.00
2022-09-28T02:54:11.955Z,100.00
2022-09-28T02:55:18.882Z,100.00
2022-09-28T02:56:54.428Z,100.00
2022-09-28T02:58:14.979Z,100.00
2022-09-28T02:59:41.529Z,100.00
2022-09-28T03:01:28.368Z,100.00
2022-09-28T03:02:37.118Z,100.00
2022-09-28T03:03:50.645Z,100.00
2022-09-28T03:05:16.206Z,100.00
2022-09-28T03:06:33.464Z,100.00
2022-09-28T03:07:40.474Z,100.00
2022-09-28T03:08:56.662Z,100.00
2022-09-28T03:10:13.691Z,100.00
2022-09-28T03:11:22.899Z,100.00
2022-09-28T03:12:29.339Z,100.00
2022-09-28T03:13:32.593Z,100.00
2022-09-28T03:14:34.950Z,100.00
2022-09-28T03:15:37.609Z,100.00
2022-09-28T03:16:43.594Z,100.00
2022-09-28T03:17:46.172Z,100.00
2022-09-28T03:18:49.237Z,100.00
2022-09-28T03:19:51.629Z,100.00
2022-09-28T03:20:53.864Z,100.00
2022-09-28T03:21:56.481Z,100.00
2022-09-28T03:23:23.452Z,100.00
2022-09-28T03:24:20.744Z,100.00
2022-09-28T03:25:23.218Z,100.00
2022-09-28T03:26:25.350Z,100.00
2022-09-28T03:27:27.572Z,100.00
2022-09-28T03:28:29.898Z,100.00
2022-09-28T03:29:34.398Z,100.00
2022-09-28T03:30:39.799Z,100.00
2022-09-28T03:31:42.040Z,100.00
2022-09-28T03:32:44.353Z,100.00
2022-09-28T03:33:46.742Z,100.00
2022-09-28T03:34:49.228Z,100.00
2022-09-28T03:35:51.738Z,100.00
2022-09-28T03:36:54.098Z,100.00
2022-09-28T03:37:57.074Z,100.00
2022-09-28T03:39:01.142Z,100.00
2022-09-28T03:40:04.334Z,100.00
2022-09-28T03:41:08.088Z,100.00
2022-09-28T03:42:12.327Z,100.00
2022-09-28T03:43:18.577Z,100.00
2022-09-28T03:44:20.932Z,100.00
2022-09-28T03:45:23.634Z,100.00
2022-09-28T03:46:27.372Z,100.00
2022-09-28T03:47:32.710Z,100.00
2022-09-28T03:48:36.323Z,100.00
2022-09-28T03:49:38.470Z,100.00
2022-09-28T03:50:40.635Z,100.00
2022-09-28T03:51:45.005Z,100.00
2022-09-28T03:52:47.147Z,100.00
2022-09-28T03:53:49.372Z,100.00
2022-09-28T03:54:51.495Z,100.00
2022-09-28T03:55:53.687Z,100.00
2022-09-28T03:56:56.258Z,100.00
2022-09-28T03:57:58.406Z,100.00
2022-09-28T03:59:03.687Z,100.00
2022-09-28T04:00:06.205Z,100.00
2022-09-28T04:01:17.681Z,100.00
2022-09-28T04:02:21.617Z,100.00
2022-09-28T04:03:23.879Z,100.00
2022-09-28T04:04:26.045Z,100.00
2022-09-28T04:05:28.190Z,100.00
2022-09-28T04:06:30.337Z,100.00
2022-09-28T04:07:32.479Z,100.00
2022-09-28T04:08:34.628Z,100.00
2022-09-28T04:09:36.780Z,100.00
2022-09-28T04:10:38.974Z,100.00
2022-09-28T04:11:59.714Z,100.00
2022-09-28T04:13:05.062Z,100.00
2022-09-28T04:14:07.478Z,100.00
2022-09-28T04:15:10.054Z,100.00
2022-09-28T04:16:12.274Z,100.00
2022-09-28T04:17:17.435Z,100.00
2022-09-28T04:18:20.012Z,100.00
2022-09-28T04:19:32.454Z,100.00
2022-09-28T04:21:08.952Z,100.00
2022-09-28T04:22:16.256Z,100.00
2022-09-28T04:23:19.278Z,100.00
2022-09-28T04:24:21.474Z,100.00
2022-09-28T04:25:23.652Z,100.00
2022-09-28T04:26:27.215Z,100.00
2022-09-28T04:27:47.906Z,100.00
2022-09-28T04:29:09.160Z,100.00
2022-09-28T04:30:11.684Z,100.00
2022-09-28T04:31:18.097Z,100.00
2022-09-28T04:32:20.363Z,100.00
2022-09-28T04:33:22.539Z,100.00
2022-09-28T04:34:24.751Z,100.00
2022-09-28T04:35:26.847Z,100.00
2022-09-28T04:36:29.023Z,100.00
2022-09-28T04:37:31.303Z,100.00
2022-09-28T04:38:51.804Z,100.00
2022-09-28T04:39:55.945Z,100.00
2022-09-28T04:40:58.092Z,100.00
2022-09-28T04:42:01.138Z,100.00
2022-09-28T04:43:03.831Z,100.00
2022-09-28T04:44:06.560Z,100.00
2022-09-28T04:45:09.350Z,100.00
2022-09-28T04:46:14.980Z,100.00
2022-09-28T04:47:24.205Z,100.00
2022-09-28T04:48:55.554Z,100.00
2022-09-28T04:50:10.719Z,100.00
2022-09-28T04:51:33.178Z,100.00
2022-09-28T04:52:37.483Z,100.00
2022-09-28T04:53:39.789Z,100.00
2022-09-28T04:54:42.115Z,100.00
2022-09-28T04:55:45.005Z,100.00
2022-09-28T04:56:47.270Z,100.00
2022-09-28T04:57:49.765Z,100.00
2022-09-28T04:58:52.980Z,100.00
2022-09-28T04:59:55.597Z,100.00
2022-09-28T05:01:00.270Z,100.00
2022-09-28T05:02:21.031Z,100.00
2022-09-28T05:03:50.208Z,100.00
2022-09-28T05:05:02.141Z,100.00
2022-09-28T05:06:16.068Z,100.00
2022-09-28T05:07:20.047Z,100.00
2022-09-28T05:08:22.493Z,100.00
2022-09-28T05:09:24.613Z,100.00
2022-09-28T05:10:27.359Z,100.00
2022-09-28T05:11:29.567Z,100.00
2022-09-28T05:12:32.311Z,100.00
2022-09-28T05:13:41.833Z,100.00
2022-09-28T05:14:44.034Z,100.00
2022-09-28T05:15:46.236Z,100.00
2022-09-28T05:16:49.486Z,100.00
2022-09-28T05:17:57.329Z,100.00
2022-09-28T05:19:16.874Z,100.00
2022-09-28T05:20:19.204Z,100.00
2022-09-28T05:21:21.584Z,100.00
2022-09-28T05:22:23.691Z,100.00
2022-09-28T05:23:25.918Z,100.00
2022-09-28T05:24:30.946Z,100.00
2022-09-28T05:25:34.301Z,100.00
2022-09-28T05:26:52.194Z,100.00
2022-09-28T05:27:56.470Z,100.00
2022-09-28T05:29:10.388Z,100.00
2022-09-28T05:30:15.556Z,100.00
2022-09-28T05:31:49.978Z,100.00
2022-09-28T05:33:10.182Z,100.00
2022-09-28T05:34:23.058Z,100.00
2022-09-28T05:35:25.190Z,100.00
2022-09-28T05:36:27.869Z,100.00
2022-09-28T05:37:31.084Z,100.00
2022-09-28T05:38:33.346Z,100.00
2022-09-28T05:39:36.604Z,100.00
2022-09-28T05:40:38.756Z,100.00
2022-09-28T05:41:40.928Z,100.00
2022-09-28T05:42:43.367Z,100.00
2022-09-28T05:43:45.724Z,100.00
2022-09-28T05:44:47.924Z,100.00
2022-09-28T05:45:55.047Z,100.00
2022-09-28T05:46:57.941Z,100.00
2022-09-28T05:48:00.206Z,100.00
2022-09-28T05:49:03.665Z,100.00
2022-09-28T05:50:07.982Z,100.00
2022-09-28T05:51:10.319Z,100.00
2022-09-28T05:52:12.523Z,100.00
2022-09-28T05:53:15.026Z,100.00
2022-09-28T05:54:17.348Z,100.00
2022-09-28T05:55:21.904Z,100.00
2022-09-28T05:56:24.025Z,100.00
2022-09-28T05:57:27.614Z,100.00
2022-09-28T05:58:29.746Z,100.00
2022-09-28T05:59:35.194Z,100.00
2022-09-28T06:00:37.529Z,100.00
2022-09-28T06:01:39.716Z,100.00
2022-09-28T06:02:44.624Z,100.00
2022-09-28T06:03:48.450Z,100.00
2022-09-28T06:04:51.211Z,100.00
2022-09-28T06:05:53.334Z,100.00
2022-09-28T06:06:56.063Z,100.00
2022-09-28T06:07:59.432Z,100.00
2022-09-28T06:09:01.565Z,100.00
2022-09-28T06:10:07.147Z,100.00
2022-09-28T06:11:16.134Z,100.00
2022-09-28T06:12:18.335Z,100.00
2022-09-28T06:13:25.251Z,100.00
2022-09-28T06:14:27.482Z,100.00
2022-09-28T06:15:32.410Z,100.00
2022-09-28T06:16:38.271Z,100.00
2022-09-28T06:17:44.360Z,100.00
2022-09-28T06:19:05.066Z,100.00
2022-09-28T06:20:34.557Z,100.00
2022-09-28T06:21:52.787Z,100.00
2022-09-28T06:22:55.375Z,100.00
2022-09-28T06:23:57.609Z,100.00
2022-09-28T06:25:00.853Z,100.00
2022-09-28T06:26:03.074Z,100.00
2022-09-28T06:27:05.838Z,100.00
2022-09-28T06:28:11.082Z,100.00
2022-09-28T06:29:19.725Z,100.00
2022-09-28T06:30:24.193Z,100.00
2022-09-28T06:31:30.026Z,100.00
2022-09-28T06:32:32.301Z,100.00
2022-09-28T06:33:35.697Z,100.00
2022-09-28T06:34:37.832Z,100.00
2022-09-28T06:35:40.721Z,100.00
2022-09-28T06:36:42.868Z,100.00
2022-09-28T06:37:45.424Z,100.00
2022-09-28T06:38:47.812Z,100.00
2022-09-28T06:39:50.347Z,100.00
2022-09-28T06:40:52.538Z,100.00
2022-09-28T06:41:54.883Z,100.00
2022-09-28T06:43:10.658Z,100.00
2022-09-28T06:44:32.286Z,100.00
2022-09-28T06:45:57.273Z,100.00
2022-09-28T06:47:19.612Z,100.00
2022-09-28T06:48:56.845Z,100.00
2022-09-28T06:50:17.267Z,100.00
2022-09-28T06:51:42.109Z,100.00
2022-09-28T06:52:54.825Z,100.00
2022-09-28T06:54:25.794Z,100.00
2022-09-28T06:55:57.435Z,100.00
2022-09-28T06:56:59.591Z,100.00
2022-09-28T06:58:07.438Z,100.00
2022-09-28T06:59:11.025Z,100.00
2022-09-28T07:00:14.702Z,100.00
2022-09-28T07:01:19.939Z,100.00
2022-09-28T07:02:33.003Z,100.00
2022-09-28T07:04:09.994Z,100.00
2022-09-28T07:05:53.964Z,100.00
2022-09-28T07:07:16.551Z,100.00
2022-09-28T07:08:26.409Z,100.00
2022-09-28T07:09:51.259Z,100.00
2022-09-28T07:11:17.529Z,100.00
2022-09-28T07:12:26.270Z,100.00
2022-09-28T07:13:51.014Z,100.00
2022-09-28T07:14:57.431Z,100.00
2022-09-28T07:16:02.146Z,100.00
2022-09-28T07:17:13.808Z,100.00
2022-09-28T07:18:17.859Z,100.00
2022-09-28T07:19:20.050Z,100.00
2022-09-28T07:20:22.207Z,100.00
2022-09-28T07:21:30.256Z,100.00
2022-09-28T07:22:42.760Z,100.00
2022-09-28T07:23:53.945Z,100.00
2022-09-28T07:24:59.265Z,100.00
2022-09-28T07:26:14.467Z,100.00
2022-09-28T07:27:37.185Z,100.00
2022-09-28T07:29:05.542Z,100.00
2022-09-28T07:30:35.193Z,100.00
2022-09-28T07:31:49.519Z,100.00
2022-09-28T07:33:17.550Z,100.00
2022-09-28T07:34:28.693Z,100.00
2022-09-28T07:35:35.632Z,100.00
2022-09-28T07:36:39.063Z,100.00
2022-09-28T07:37:41.217Z,100.00
2022-09-28T07:38:44.009Z,100.00
2022-09-28T07:40:05.319Z,100.00
2022-09-28T07:41:14.174Z,100.00
2022-09-28T07:42:22.550Z,100.00
2022-09-28T07:43:25.123Z,100.00
2022-09-28T07:44:29.812Z,100.00
2022-09-28T07:45:35.799Z,100.00
2022-09-28T07:46:38.246Z,100.00
2022-09-28T07:47:45.858Z,100.00
2022-09-28T07:49:09.735Z,100.00
2022-09-28T07:50:53.649Z,100.00
2022-09-28T07:52:28.754Z,100.00
2022-09-28T07:53:44.792Z,100.00
2022-09-28T07:55:07.202Z,100.00
2022-09-28T07:56:28.382Z,100.00
2022-09-28T07:57:41.173Z,100.00
2022-09-28T07:59:09.493Z,100.00
2022-09-28T08:00:14.997Z,100.00
2022-09-28T08:01:19.298Z,100.00
2022-09-28T08:02:22.181Z,100.00
2022-09-28T08:03:25.099Z,100.00
2022-09-28T08:04:28.301Z,100.00
2022-09-28T08:05:32.028Z,100.00
2022-09-28T08:06:34.247Z,100.00
2022-09-28T08:07:38.316Z,100.00
2022-09-28T08:08:44.767Z,100.00
2022-09-28T08:09:48.889Z,100.00
2022-09-28T08:11:03.437Z,100.00
2022-09-28T08:12:40.617Z,100.00
2022-09-28T08:14:03.042Z,100.00
2022-09-28T08:15:36.859Z,100.00
2022-09-28T08:17:02.198Z,100.00
2022-09-28T08:18:13.993Z,100.00
2022-09-28T08:19:16.252Z,100.00
2022-09-28T08:20:37.188Z,100.00
2022-09-28T08:21:45.309Z,100.00
2022-09-28T08:22:47.704Z,100.00
2022-09-28T08:23:50.114Z,100.00
2022-09-28T08:24:52.237Z,100.00
2022-09-28T08:25:54.711Z,100.00
2022-09-28T08:26:59.888Z,100.00
2022-09-28T08:28:08.599Z,100.00
2022-09-28T08:29:20.387Z,100.00
2022-09-28T08:30:22.654Z,100.00
2022-09-28T08:31:38.474Z,100.00
2022-09-28T08:33:00.926Z,100.00
2022-09-28T08:34:18.823Z,100.00
2022-09-28T08:35:45.971Z,100.00
2022-09-28T08:36:56.877Z,100.00
2022-09-28T08:38:22.230Z,100.00
2022-09-28T08:39:42.761Z,100.00
2022-09-28T08:41:18.315Z,100.00
2022-09-28T08:42:52.084Z,100.00
2022-09-28T08:44:23.818Z,100.00
2022-09-28T08:45:59.084Z,100.00
2022-09-28T08:47:52.341Z,100.00
2022-09-28T08:49:24.969Z,100.00
2022-09-28T08:51:10.773Z,100.00
2022-09-28T08:52:26.062Z,100.00
2022-09-28T08:54:21.688Z,100.00
2022-09-28T08:55:32.371Z,100.00
2022-09-28T08:56:47.517Z,100.00
2022-09-28T08:57:52.628Z,100.00
2022-09-28T08:59:01.548Z,100.00
2022-09-28T09:00:09.613Z,100.00
2022-09-28T09:01:18.940Z,100.00
2022-09-28T09:02:27.390Z,100.00
2022-09-28T09:03:39.750Z,100.00
2022-09-28T09:05:20.826Z,100.00
2022-09-28T09:07:25.995Z,100.00
2022-09-28T09:08:54.645Z,100.00
2022-09-28T09:10:26.252Z,100.00
2022-09-28T09:12:08.194Z,100.00
2022-09-28T09:13:31.478Z,100.00
2022-09-28T09:15:11.162Z,100.00
2022-09-28T09:16:41.467Z,100.00
2022-09-28T09:18:22.901Z,100.00
2022-09-28T09:21:47.501Z,100.00
2022-09-28T09:22:56.796Z,100.00
2022-09-28T09:24:12.389Z,100.00
2022-09-28T09:25:38.420Z,100.00
2022-09-28T09:26:43.179Z,100.00
2022-09-28T09:27:59.152Z,100.00
2022-09-28T09:29:25.642Z,100.00
2022-09-28T09:30:43.822Z,100.00
2022-09-28T09:32:16.545Z,100.00
2022-09-28T09:33:52.020Z,100.00
2022-09-28T09:35:15.646Z,100.00
2022-09-28T09:37:17.878Z,100.00
2022-09-28T09:39:12.687Z,100.00
2022-09-28T09:40:58.896Z,100.00
2022-09-28T09:42:53.843Z,100.00
2022-09-28T09:44:44.814Z,100.00
2022-09-28T09:46:20.201Z,100.00
2022-09-28T09:47:54.289Z,100.00
2022-09-28T09:49:18.456Z,100.00
2022-09-28T09:50:29.986Z,100.00
2022-09-28T09:51:45.143Z,100.00
2022-09-28T09:52:51.270Z,100.00
2022-09-28T09:54:01.660Z,100.00
2022-09-28T09:55:10.110Z,100.00
2022-09-28T09:56:24.878Z,100.00
2022-09-28T09:58:04.412Z,94.53
2022-09-28T09:59:28.050Z,90.31
2022-09-28T10:00:44.981Z,82.69
2022-09-28T10:01:56.810Z,83.02
2022-09-28T10:03:23.349Z,78.70
2022-09-28T10:04:30.882Z,79.00
2022-09-28T10:05:37.342Z,82.21
2022-09-28T10:06:42.218Z,84.02
2022-09-28T10:08:16.073Z,79.58
2022-09-28T10:09:34.645Z,73.71
2022-09-28T10:11:12.667Z,74.34
2022-09-28T10:12:20.864Z,68.37
2022-09-28T10:13:23.373Z,67.41
2022-09-28T10:14:31.018Z,66.51
2022-09-28T10:15:47.459Z,64.53
2022-09-28T10:16:57.837Z,63.95
2022-09-28T10:18:21.475Z,64.33
2022-09-28T10:19:43.287Z,60.43
2022-09-28T10:21:04.311Z,58.96
2022-09-28T10:22:22.182Z,56.95
2022-09-28T10:23:30.578Z,57.81
2022-09-28T10:24:32.701Z,53.76
2022-09-28T10:25:38.053Z,56.70
2022-09-28T10:26:44.367Z,52.90
2022-09-28T10:27:52.176Z,49.71
2022-09-28T10:28:59.464Z,48.83
2022-09-28T10:30:10.732Z,48.84
2022-09-28T10:31:35.208Z,47.08
2022-09-28T10:32:45.697Z,49.00
2022-09-28T10:33:47.924Z,47.91
2022-09-28T10:34:52.381Z,48.37
2022-09-28T10:36:00.073Z,48.67
2022-09-28T10:37:09.606Z,47.66
2022-09-28T10:38:35.083Z,49.29
2022-09-28T10:39:49.415Z,48.50
2022-09-28T10:40:54.391Z,48.44
2022-09-28T10:42:08.558Z,49.54
2022-09-28T10:43:25.557Z,48.91
2022-09-28T10:44:35.411Z,46.79
2022-09-28T10:45:46.648Z,45.39
2022-09-28T10:47:00.897Z,45.50
2022-09-28T10:48:12.692Z,47.07
2022-09-28T10:49:18.569Z,46.26
2022-09-28T10:50:28.041Z,45.44
2022-09-28T10:51:40.591Z,45.59
2022-09-28T10:52:46.200Z,47.38
2022-09-28T10:54:19.633Z,46.98
2022-09-28T10:55:28.858Z,48.14
2022-09-28T10:56:37.095Z,47.75
2022-09-28T10:57:42.377Z,51.88
2022-09-28T10:58:46.113Z,51.42
2022-09-28T10:59:54.847Z,52.27
2022-09-28T11:01:12.390Z,51.77
2022-09-28T11:02:35.923Z,52.85
2022-09-28T11:03:55.137Z,52.98
2022-09-28T11:04:59.813Z,53.01
2022-09-28T11:06:07.936Z,52.08
2022-09-28T11:07:46.264Z,50.60
2022-09-28T11:08:50.416Z,48.72
2022-09-28T11:09:55.371Z,48.65
2022-09-28T11:11:19.859Z,46.75
2022-09-28T11:12:43.998Z,47.71
2022-09-28T11:13:50.655Z,48.68
2022-09-28T11:15:04.949Z,52.27
2022-09-28T11:16:08.071Z,50.66
2022-09-28T11:17:32.651Z,49.87
2022-09-28T11:18:35.004Z,51.64
2022-09-28T11:19:42.181Z,47.89
2022-09-28T11:20:45.530Z,47.99
2022-09-28T11:21:47.776Z,46.44
2022-09-28T11:22:56.141Z,45.16
2022-09-28T11:24:19.331Z,45.70
2022-09-28T11:25:25.331Z,46.11
2022-09-28T11:26:35.698Z,46.71
2022-09-28T11:27:37.879Z,44.50
2022-09-28T11:28:42.027Z,43.76
2022-09-28T11:29:58.643Z,44.76
2022-09-28T11:31:11.293Z,41.92
2022-09-28T11:32:44.349Z,41.05
2022-09-28T11:34:31.058Z,42.96
2022-09-28T11:36:12.838Z,46.57
2022-09-28T11:37:23.691Z,47.77
2022-09-28T11:38:40.134Z,49.88
2022-09-28T11:40:16.971Z,51.27
2022-09-28T11:41:41.628Z,51.81
2022-09-28T11:43:18.392Z,50.70
2022-09-28T11:44:40.009Z,51.46
2022-09-28T11:45:59.315Z,50.28
2022-09-28T11:47:35.763Z,50.57
2022-09-28T11:48:51.084Z,53.48
2022-09-28T11:50:23.009Z,56.96
2022-09-28T11:51:36.295Z,60.32
2022-09-28T11:52:57.343Z,61.19
2022-09-28T11:54:14.175Z,64.13
2022-09-28T11:55:24.850Z,64.58
2022-09-28T11:56:39.747Z,63.73
2022-09-28T11:57:46.423Z,64.83
2022-09-28T11:58:55.839Z,63.39
2022-09-28T12:00:22.273Z,64.14
2022-09-28T12:01:58.363Z,61.53
2022-09-28T12:03:26.988Z,59.95
2022-09-28T12:04:37.937Z,57.59
2022-09-28T12:05:49.720Z,56.42
2022-09-28T12:07:20.619Z,55.57
2022-09-28T12:08:30.356Z,53.95
2022-09-28T12:09:44.040Z,52.08
2022-09-28T12:11:05.905Z,49.25
2022-09-28T12:12:42.393Z,47.07
2022-09-28T12:13:49.650Z,47.23
2022-09-28T12:14:57.208Z,45.17
2022-09-28T12:17:57.292Z,38.98
2022-09-28T12:19:01.809Z,39.03
2022-09-28T12:20:16.757Z,36.54
2022-09-28T12:21:24.743Z,38.49
2022-09-28T12:22:40.549Z,39.46
2022-09-28T12:23:44.244Z,39.18
2022-09-28T12:24:50.864Z,37.16
2022-09-28T12:26:03.168Z,35.84
2022-09-28T12:27:14.387Z,33.80
2022-09-28T12:28:43.863Z,33.33
2022-09-28T12:29:47.510Z,33.29
2022-09-28T12:30:50.189Z,33.15
2022-09-28T12:32:02.255Z,31.98
2022-09-28T12:33:09.262Z,32.02
2022-09-28T12:34:11.502Z,32.29
2022-09-28T12:35:18.699Z,34.94
2022-09-28T12:36:30.237Z,34.05
2022-09-28T12:37:41.666Z,34.76
2022-09-28T12:39:08.362Z,36.55
2022-09-28T12:40:20.616Z,37.36
2022-09-28T12:41:34.676Z,38.04
2022-09-28T12:42:44.303Z,38.75
2022-09-28T12:44:06.661Z,36.32
2022-09-28T12:45:27.776Z,36.57
2022-09-28T12:46:48.880Z,36.79
2022-09-28T12:47:57.200Z,37.06
2022-09-28T12:49:51.583Z,36.32
2022-09-28T12:50:57.170Z,35.74
2022-09-28T12:52:33.747Z,35.84
2022-09-28T12:53:51.312Z,35.18
2022-09-28T12:55:13.494Z,37.84
2022-09-28T12:56:26.112Z,36.86
2022-09-28T12:57:43.360Z,37.01
2022-09-28T12:59:01.018Z,36.74
2022-09-28T13:00:13.205Z,35.29
2022-09-28T13:01:24.225Z,36.95
2022-09-28T13:02:44.939Z,36.22
2022-09-28T13:03:57.705Z,36.90
2022-09-28T13:05:18.137Z,37.73
2022-09-28T13:06:37.092Z,39.06
2022-09-28T13:07:53.156Z,38.55
2022-09-28T13:09:16.444Z,37.78
2022-09-28T13:10:39.886Z,37.33
2022-09-28T13:12:00.850Z,36.20
2022-09-28T13:13:02.883Z,37.51
2022-09-28T13:14:10.840Z,37.29
2022-09-28T13:15:32.076Z,38.90
2022-09-28T13:17:03.237Z,39.73
2022-09-28T13:18:12.598Z,40.89
2022-09-28T13:19:31.944Z,43.56
2022-09-28T13:21:12.031Z,45.23
2022-09-28T13:22:16.654Z,45.00
2022-09-28T13:23:25.513Z,43.26
2022-09-28T13:24:34.014Z,43.63
2022-09-28T13:25:40.948Z,44.51
2022-09-28T13:26:46.255Z,45.40
2022-09-28T13:27:53.629Z,45.52
2022-09-28T13:29:04.317Z,44.01
2022-09-28T13:30:07.279Z,44.34
2022-09-28T13:31:10.878Z,43.53
2022-09-28T13:32:13.826Z,44.35
2022-09-28T13:33:23.141Z,44.06
2022-09-28T13:34:28.844Z,43.05
2022-09-28T13:35:32.065Z,43.04
2022-09-28T13:36:36.938Z,41.62
2022-09-28T13:37:39.047Z,40.21
2022-09-28T13:38:47.445Z,41.79
2022-09-28T13:39:52.580Z,42.44
2022-09-28T13:41:03.846Z,41.30
2022-09-28T13:42:09.252Z,41.97
2022-09-28T13:43:28.710Z,43.08
2022-09-28T13:44:52.123Z,42.07
2022-09-28T13:45:56.520Z,41.80
2022-09-28T13:47:09.916Z,41.48
2022-09-28T13:48:20.537Z,41.70
2022-09-28T13:49:26.811Z,41.72
2022-09-28T13:51:20.870Z,44.31
2022-09-28T13:52:34.528Z,45.27
2022-09-28T13:53:58.769Z,45.34
2022-09-28T13:55:14.576Z,44.11
2022-09-28T13:56:34.136Z,44.04
2022-09-28T13:57:54.685Z,43.65
2022-09-28T13:59:23.698Z,45.46
2022-09-28T14:00:28.403Z,44.36
2022-09-28T14:01:37.815Z,45.52
2022-09-28T14:02:45.506Z,46.17
2022-09-28T14:04:20.711Z,45.04
2022-09-28T14:05:22.940Z,45.40
2022-09-28T14:06:31.056Z,44.72
2022-09-28T14:07:35.853Z,45.80
2022-09-28T14:08:39.310Z,44.79
2022-09-28T14:09:44.361Z,46.78
2022-09-28T14:10:51.849Z,47.65
2022-09-28T14:12:02.348Z,48.26
2022-09-28T14:13:06.602Z,47.03
2022-09-28T14:14:11.853Z,47.37
2022-09-28T14:15:37.100Z,48.05
2022-09-28T14:16:41.634Z,47.25
2022-09-28T14:17:43.848Z,48.09
2022-09-28T14:18:52.820Z,47.32
2022-09-28T14:20:15.874Z,47.16
2022-09-28T14:21:32.090Z,48.00
2022-09-28T14:22:51.630Z,49.56
2022-09-28T14:24:23.055Z,48.91
2022-09-28T14:25:28.858Z,51.59
2022-09-28T14:27:08.406Z,50.26
2022-09-28T14:28:31.725Z,52.87
2022-09-28T14:29:39.150Z,53.06
2022-09-28T14:30:41.373Z,53.57
2022-09-28T14:31:45.358Z,56.02
2022-09-28T14:32:56.959Z,56.70
2022-09-28T14:34:02.041Z,57.78
2022-09-28T14:35:18.853Z,58.46
2022-09-28T14:36:53.979Z,58.02
2022-09-28T14:38:19.292Z,57.24
2022-09-28T14:39:52.488Z,55.77
2022-09-28T14:41:11.373Z,56.04
2022-09-28T14:42:17.491Z,56.14
2022-09-28T14:43:26.123Z,57.14
2022-09-28T14:44:28.348Z,57.33
2022-09-28T14:45:35.892Z,59.22
2022-09-28T14:46:42.958Z,60.05
2022-09-28T14:48:11.396Z,60.16
2022-09-28T14:49:20.007Z,59.86
2022-09-28T14:50:22.402Z,58.58
2022-09-28T14:51:24.638Z,58.58
2022-09-28T14:52:40.462Z,59.11
2022-09-28T14:53:42.796Z,59.15
2022-09-28T14:54:54.297Z,59.13
2022-09-28T14:55:59.752Z,59.19
2022-09-28T14:57:15.400Z,56.64
2022-09-28T14:58:22.413Z,56.00
2022-09-28T14:59:42.854Z,55.14
2022-09-28T15:00:47.252Z,53.10
2022-09-28T15:01:58.050Z,53.40
2022-09-28T15:03:02.394Z,51.04
2022-09-28T15:04:11.291Z,49.88
2022-09-28T15:05:22.981Z,50.02
2022-09-28T15:06:29.035Z,48.80
2022-09-28T15:07:47.988Z,50.22
2022-09-28T15:08:50.356Z,50.04
2022-09-28T15:09:57.888Z,50.51
2022-09-28T15:11:01.978Z,50.48